sensor_id;sensor_type;location;lat;lon;timestamp;pressure;altitude;pressure_sealevel;temperature;humidity
5500;BME280;2772;42.700;23.304;2023-02-22T00:00:24;95114.19;;;11.48;76.18
5500;BME280;2772;42.700;23.304;2023-02-22T00:03:01;95109.19;;;11.55;76.84
5500;BME280;2772;42.700;23.304;2023-02-22T00:05:28;95120.34;;;11.57;77.07
5500;BME280;2772;42.700;23.304;2023-02-22T00:07:56;95119.75;;;11.68;79.88
5500;BME280;2772;42.700;23.304;2023-02-22T00:10:26;95122.09;;;11.70;71.96
5500;BME280;2772;42.700;23.304;2023-02-22T00:12:54;95117.22;;;11.63;71.28
5500;BME280;2772;42.700;23.304;2023-02-22T00:15:23;95118.44;;;11.57;72.80
5500;BME280;2772;42.700;23.304;2023-02-22T00:17:51;95114.22;;;11.56;74.04
5500;BME280;2772;42.700;23.304;2023-02-22T00:20:19;95119.84;;;11.55;74.09
5500;BME280;2772;42.700;23.304;2023-02-22T00:22:48;95113.88;;;11.49;71.96
5500;BME280;2772;42.700;23.304;2023-02-22T00:25:19;95124.19;;;11.34;73.43
5500;BME280;2772;42.700;23.304;2023-02-22T00:27:48;95115.13;;;11.35;71.72
5500;BME280;2772;42.700;23.304;2023-02-22T00:30:19;95115.88;;;11.27;72.87
5500;BME280;2772;42.700;23.304;2023-02-22T00:32:47;95109.25;;;11.24;72.48
5500;BME280;2772;42.700;23.304;2023-02-22T00:35:15;95111.16;;;11.23;76.98
5500;BME280;2772;42.700;23.304;2023-02-22T00:37:46;95111.16;;;11.23;77.92
5500;BME280;2772;42.700;23.304;2023-02-22T00:40:16;95112.22;;;11.22;75.07
5500;BME280;2772;42.700;23.304;2023-02-22T00:42:43;95112.22;;;11.22;81.94
5500;BME280;2772;42.700;23.304;2023-02-22T00:45:12;95097.69;;;11.37;82.96
5500;BME280;2772;42.700;23.304;2023-02-22T00:47:39;95107.13;;;11.43;81.69
5500;BME280;2772;42.700;23.304;2023-02-22T00:50:06;95095.69;;;11.51;81.96
5500;BME280;2772;42.700;23.304;2023-02-22T00:52:34;95100.41;;;11.46;72.41
5500;BME280;2772;42.700;23.304;2023-02-22T00:55:01;95093.63;;;11.40;77.12
5500;BME280;2772;42.700;23.304;2023-02-22T00:57:30;95095.63;;;11.17;76.95
5500;BME280;2772;42.700;23.304;2023-02-22T00:59:59;95098.91;;;11.14;77.52
5500;BME280;2772;42.700;23.304;2023-02-22T01:02:37;95086.81;;;11.08;75.26
5500;BME280;2772;42.700;23.304;2023-02-22T01:05:05;95085.88;;;11.12;83.15
5500;BME280;2772;42.700;23.304;2023-02-22T01:07:31;95087.44;;;11.13;72.75
5500;BME280;2772;42.700;23.304;2023-02-22T01:09:59;95085.56;;;11.22;83.27
5500;BME280;2772;42.700;23.304;2023-02-22T01:12:26;95088.72;;;11.24;80.97
5500;BME280;2772;42.700;23.304;2023-02-22T01:14:52;95072.72;;;11.16;79.39
5500;BME280;2772;42.700;23.304;2023-02-22T01:17:21;95085.00;;;11.26;84.88
5500;BME280;2772;42.700;23.304;2023-02-22T01:19:49;95073.22;;;11.27;80.90
5500;BME280;2772;42.700;23.304;2023-02-22T01:22:16;95079.66;;;11.26;83.53
5500;BME280;2772;42.700;23.304;2023-02-22T01:24:45;95076.06;;;11.30;82.52
5500;BME280;2772;42.700;23.304;2023-02-22T01:27:12;95076.19;;;11.34;82.34
5500;BME280;2772;42.700;23.304;2023-02-22T01:29:39;95085.72;;;11.09;81.86
5500;BME280;2772;42.700;23.304;2023-02-22T01:32:06;95079.56;;;11.00;81.25
5500;BME280;2772;42.700;23.304;2023-02-22T01:34:33;95082.25;;;11.08;83.66
5500;BME280;2772;42.700;23.304;2023-02-22T01:37:04;95066.59;;;11.15;85.71
5500;BME280;2772;42.700;23.304;2023-02-22T01:39:31;95086.19;;;11.19;83.74
5500;BME280;2772;42.700;23.304;2023-02-22T01:41:58;95069.75;;;11.17;79.87
5500;BME280;2772;42.700;23.304;2023-02-22T01:44:31;95079.59;;;11.08;77.40
5500;BME280;2772;42.700;23.304;2023-02-22T01:46:59;95084.59;;;11.01;80.20
5500;BME280;2772;42.700;23.304;2023-02-22T01:49:30;95077.34;;;10.93;86.00
5500;BME280;2772;42.700;23.304;2023-02-22T01:52:00;95081.00;;;10.97;87.31
5500;BME280;2772;42.700;23.304;2023-02-22T01:54:32;95078.31;;;10.97;87.35
5500;BME280;2772;42.700;23.304;2023-02-22T01:57:04;95084.72;;;10.88;85.23
5500;BME280;2772;42.700;23.304;2023-02-22T01:59:35;95084.19;;;10.77;84.67
5500;BME280;2772;42.700;23.304;2023-02-22T02:02:03;95082.63;;;10.76;85.28
5500;BME280;2772;42.700;23.304;2023-02-22T02:04:31;95082.00;;;10.79;82.44
5500;BME280;2772;42.700;23.304;2023-02-22T02:07:01;95093.59;;;10.75;80.64
5500;BME280;2772;42.700;23.304;2023-02-22T02:09:33;95086.38;;;10.75;84.58
5500;BME280;2772;42.700;23.304;2023-02-22T02:12:02;95087.13;;;10.67;87.34
5500;BME280;2772;42.700;23.304;2023-02-22T02:14:31;95085.22;;;10.59;84.91
5500;BME280;2772;42.700;23.304;2023-02-22T02:16:58;95087.19;;;10.45;83.38
5500;BME280;2772;42.700;23.304;2023-02-22T02:19:34;95083.00;;;10.31;85.15
5500;BME280;2772;42.700;23.304;2023-02-22T02:22:12;95082.41;;;10.34;80.43
5500;BME280;2772;42.700;23.304;2023-02-22T02:28:09;95094.09;;;10.24;86.74
5500;BME280;2772;42.700;23.304;2023-02-22T02:30:51;95088.59;;;10.21;80.76
5500;BME280;2772;42.700;23.304;2023-02-22T02:33:28;95091.88;;;10.04;86.80
5500;BME280;2772;42.700;23.304;2023-02-22T02:36:02;95093.56;;;10.14;93.21
5500;BME280;2772;42.700;23.304;2023-02-22T02:38:40;95095.19;;;10.23;91.91
5500;BME280;2772;42.700;23.304;2023-02-22T02:41:14;95103.06;;;10.28;92.17
5500;BME280;2772;42.700;23.304;2023-02-22T02:43:46;95093.50;;;10.27;92.04
5500;BME280;2772;42.700;23.304;2023-02-22T02:46:18;95101.34;;;10.32;90.77
5500;BME280;2772;42.700;23.304;2023-02-22T02:48:50;95096.69;;;10.38;91.40
5500;BME280;2772;42.700;23.304;2023-02-22T02:51:21;95091.56;;;10.41;93.62
5500;BME280;2772;42.700;23.304;2023-02-22T02:53:50;95100.63;;;10.18;89.01
5500;BME280;2772;42.700;23.304;2023-02-22T02:56:18;95097.00;;;10.14;92.99
5500;BME280;2772;42.700;23.304;2023-02-22T02:58:46;95101.66;;;10.31;94.52
5500;BME280;2772;42.700;23.304;2023-02-22T03:01:21;95107.69;;;10.23;91.54
5500;BME280;2772;42.700;23.304;2023-02-22T03:04:15;95102.22;;;10.19;91.02
5500;BME280;2772;42.700;23.304;2023-02-22T03:09:47;95115.06;;;10.26;91.93
5500;BME280;2772;42.700;23.304;2023-02-22T03:12:31;95110.97;;;10.20;94.64
5500;BME280;2772;42.700;23.304;2023-02-22T03:15:12;95108.69;;;10.27;95.35
5500;BME280;2772;42.700;23.304;2023-02-22T03:17:46;95103.97;;;10.24;94.40
5500;BME280;2772;42.700;23.304;2023-02-22T03:20:21;95107.88;;;10.26;94.24
5500;BME280;2772;42.700;23.304;2023-02-22T03:22:59;95101.34;;;10.32;93.26
5500;BME280;2772;42.700;23.304;2023-02-22T03:25:32;95108.59;;;10.18;91.43
5500;BME280;2772;42.700;23.304;2023-02-22T03:28:02;95098.16;;;10.22;86.61
5500;BME280;2772;42.700;23.304;2023-02-22T03:30:33;95102.63;;;10.13;92.31
5500;BME280;2772;42.700;23.304;2023-02-22T03:33:05;95103.59;;;10.17;89.40
5500;BME280;2772;42.700;23.304;2023-02-22T03:35:38;95098.09;;;10.13;85.53
5500;BME280;2772;42.700;23.304;2023-02-22T03:38:10;95101.66;;;10.09;90.74
5500;BME280;2772;42.700;23.304;2023-02-22T03:40:42;95107.56;;;10.06;91.31
5500;BME280;2772;42.700;23.304;2023-02-22T03:43:14;95103.34;;;10.05;92.82
5500;BME280;2772;42.700;23.304;2023-02-22T03:45:43;95100.75;;;10.13;94.70
5500;BME280;2772;42.700;23.304;2023-02-22T03:48:19;95102.69;;;10.21;95.31
5500;BME280;2772;42.700;23.304;2023-02-22T03:50:49;95098.94;;;10.22;93.08
5500;BME280;2772;42.700;23.304;2023-02-22T03:53:17;95104.69;;;10.16;90.66
5500;BME280;2772;42.700;23.304;2023-02-22T03:55:48;95116.34;;;10.06;90.22
5500;BME280;2772;42.700;23.304;2023-02-22T03:58:17;95101.53;;;10.14;94.10
5500;BME280;2772;42.700;23.304;2023-02-22T04:00:46;95102.06;;;10.24;93.81
5500;BME280;2772;42.700;23.304;2023-02-22T04:03:17;95096.81;;;10.33;94.75
5500;BME280;2772;42.700;23.304;2023-02-22T04:05:44;95099.91;;;10.26;92.19
5500;BME280;2772;42.700;23.304;2023-02-22T04:08:13;95101.31;;;10.24;92.09
5500;BME280;2772;42.700;23.304;2023-02-22T04:10:40;95113.69;;;10.28;93.30
5500;BME280;2772;42.700;23.304;2023-02-22T04:13:07;95104.28;;;10.22;90.70
5500;BME280;2772;42.700;23.304;2023-02-22T04:15:35;95095.16;;;10.15;87.45
5500;BME280;2772;42.700;23.304;2023-02-22T04:18:02;95100.28;;;10.11;90.20
5500;BME280;2772;42.700;23.304;2023-02-22T04:20:29;95114.78;;;10.05;91.60
5500;BME280;2772;42.700;23.304;2023-02-22T04:22:56;95110.53;;;10.04;86.48
5500;BME280;2772;42.700;23.304;2023-02-22T04:25:24;95113.59;;;9.98;91.34
5500;BME280;2772;42.700;23.304;2023-02-22T04:27:51;95107.31;;;9.94;87.42
5500;BME280;2772;42.700;23.304;2023-02-22T04:30:18;95116.63;;;9.83;86.45
5500;BME280;2772;42.700;23.304;2023-02-22T04:32:45;95109.72;;;9.82;88.29
5500;BME280;2772;42.700;23.304;2023-02-22T04:35:11;95114.97;;;9.73;86.59
5500;BME280;2772;42.700;23.304;2023-02-22T04:37:38;95120.38;;;9.68;89.36
5500;BME280;2772;42.700;23.304;2023-02-22T04:40:06;95119.31;;;9.69;89.72
5500;BME280;2772;42.700;23.304;2023-02-22T04:42:35;95117.88;;;9.49;87.90
5500;BME280;2772;42.700;23.304;2023-02-22T04:45:03;95117.38;;;9.61;92.98
5500;BME280;2772;42.700;23.304;2023-02-22T04:47:30;95120.63;;;9.58;87.36
5500;BME280;2772;42.700;23.304;2023-02-22T04:49:56;95115.91;;;9.55;89.93
5500;BME280;2772;42.700;23.304;2023-02-22T04:52:24;95115.81;;;9.46;89.76
5500;BME280;2772;42.700;23.304;2023-02-22T04:54:52;95115.91;;;9.41;89.17
5500;BME280;2772;42.700;23.304;2023-02-22T04:57:18;95111.03;;;9.35;90.14
5500;BME280;2772;42.700;23.304;2023-02-22T04:59:47;95111.94;;;9.30;92.75
5500;BME280;2772;42.700;23.304;2023-02-22T05:02:15;95121.06;;;9.38;95.08
5500;BME280;2772;42.700;23.304;2023-02-22T05:04:42;95127.66;;;9.40;92.69
5500;BME280;2772;42.700;23.304;2023-02-22T05:07:09;95126.78;;;9.31;92.67
5500;BME280;2772;42.700;23.304;2023-02-22T05:09:36;95127.28;;;9.20;91.79
5500;BME280;2772;42.700;23.304;2023-02-22T05:12:04;95125.31;;;9.25;92.91
5500;BME280;2772;42.700;23.304;2023-02-22T05:14:31;95125.69;;;9.32;95.78
5500;BME280;2772;42.700;23.304;2023-02-22T05:17:00;95128.03;;;9.34;86.99
5500;BME280;2772;42.700;23.304;2023-02-22T05:19:28;95132.69;;;9.28;80.43
5500;BME280;2772;42.700;23.304;2023-02-22T05:21:55;95142.03;;;9.12;79.81
5500;BME280;2772;42.700;23.304;2023-02-22T05:24:22;95142.94;;;9.08;78.32
5500;BME280;2772;42.700;23.304;2023-02-22T05:26:48;95140.47;;;8.98;79.04
5500;BME280;2772;42.700;23.304;2023-02-22T05:29:18;95144.38;;;8.87;80.57
5500;BME280;2772;42.700;23.304;2023-02-22T05:31:45;95144.97;;;8.70;81.99
5500;BME280;2772;42.700;23.304;2023-02-22T05:34:13;95143.09;;;8.71;82.48
5500;BME280;2772;42.700;23.304;2023-02-22T05:36:40;95144.16;;;8.70;81.58
5500;BME280;2772;42.700;23.304;2023-02-22T05:39:07;95151.97;;;8.66;82.86
5500;BME280;2772;42.700;23.304;2023-02-22T05:41:34;95156.63;;;8.56;83.07
5500;BME280;2772;42.700;23.304;2023-02-22T05:44:00;95157.25;;;8.66;83.37
5500;BME280;2772;42.700;23.304;2023-02-22T05:46:28;95160.69;;;8.67;82.62
5500;BME280;2772;42.700;23.304;2023-02-22T05:48:55;95158.31;;;8.52;83.60
5500;BME280;2772;42.700;23.304;2023-02-22T05:51:23;95169.38;;;8.40;84.58
5500;BME280;2772;42.700;23.304;2023-02-22T05:53:50;95174.63;;;8.27;85.71
5500;BME280;2772;42.700;23.304;2023-02-22T05:56:20;95167.44;;;8.46;86.72
5500;BME280;2772;42.700;23.304;2023-02-22T05:58:47;95168.19;;;8.46;86.36
5500;BME280;2772;42.700;23.304;2023-02-22T06:01:14;95173.44;;;8.51;85.75
5500;BME280;2772;42.700;23.304;2023-02-22T06:03:40;95176.00;;;8.56;85.31
5500;BME280;2772;42.700;23.304;2023-02-22T06:06:07;95179.31;;;8.48;84.85
5500;BME280;2772;42.700;23.304;2023-02-22T06:08:36;95176.38;;;8.50;85.23
5500;BME280;2772;42.700;23.304;2023-02-22T06:11:03;95174.16;;;8.57;85.34
5500;BME280;2772;42.700;23.304;2023-02-22T06:13:30;95182.19;;;8.52;84.91
5500;BME280;2772;42.700;23.304;2023-02-22T06:15:57;95180.13;;;8.49;85.63
5500;BME280;2772;42.700;23.304;2023-02-22T06:18:24;95171.00;;;8.55;84.81
5500;BME280;2772;42.700;23.304;2023-02-22T06:20:51;95181.72;;;8.13;86.34
5500;BME280;2772;42.700;23.304;2023-02-22T06:23:18;95167.56;;;8.03;87.68
5500;BME280;2772;42.700;23.304;2023-02-22T06:25:46;95171.78;;;8.04;88.51
5500;BME280;2772;42.700;23.304;2023-02-22T06:28:13;95171.63;;;8.15;88.66
5500;BME280;2772;42.700;23.304;2023-02-22T06:30:40;95175.84;;;8.16;88.57
5500;BME280;2772;42.700;23.304;2023-02-22T06:33:08;95177.00;;;8.28;88.88
5500;BME280;2772;42.700;23.304;2023-02-22T06:35:35;95179.63;;;8.47;87.82
5500;BME280;2772;42.700;23.304;2023-02-22T06:38:02;95177.69;;;8.52;87.71
5500;BME280;2772;42.700;23.304;2023-02-22T06:40:29;95186.34;;;8.58;87.49
5500;BME280;2772;42.700;23.304;2023-02-22T06:42:57;95185.22;;;8.77;85.05
5500;BME280;2772;42.700;23.304;2023-02-22T06:45:24;95193.56;;;8.84;83.66
5500;BME280;2772;42.700;23.304;2023-02-22T06:47:51;95185.59;;;8.98;80.67
5500;BME280;2772;42.700;23.304;2023-02-22T06:50:22;95189.19;;;9.07;80.00
5500;BME280;2772;42.700;23.304;2023-02-22T06:52:50;95189.06;;;9.12;79.93
5500;BME280;2772;42.700;23.304;2023-02-22T06:55:19;95188.78;;;9.13;80.00
5500;BME280;2772;42.700;23.304;2023-02-22T06:57:46;95190.28;;;9.19;79.50
5500;BME280;2772;42.700;23.304;2023-02-22T07:00:16;95181.78;;;9.31;78.90
5500;BME280;2772;42.700;23.304;2023-02-22T07:02:44;95184.84;;;9.38;79.08
5500;BME280;2772;42.700;23.304;2023-02-22T07:05:12;95185.03;;;9.55;78.48
5500;BME280;2772;42.700;23.304;2023-02-22T07:07:41;95179.09;;;9.72;84.45
5500;BME280;2772;42.700;23.304;2023-02-22T07:10:16;95180.25;;;9.79;82.80
5500;BME280;2772;42.700;23.304;2023-02-22T07:12:43;95183.16;;;10.05;87.64
5500;BME280;2772;42.700;23.304;2023-02-22T07:15:10;95182.00;;;9.97;77.73
5500;BME280;2772;42.700;23.304;2023-02-22T07:17:40;95176.06;;;10.58;86.48
5500;BME280;2772;42.700;23.304;2023-02-22T07:20:07;95180.94;;;10.86;84.24
5500;BME280;2772;42.700;23.304;2023-02-22T07:22:35;95177.78;;;10.84;74.68
5500;BME280;2772;42.700;23.304;2023-02-22T07:25:02;95176.59;;;10.68;69.61
5500;BME280;2772;42.700;23.304;2023-02-22T07:27:29;95183.13;;;10.62;68.52
5500;BME280;2772;42.700;23.304;2023-02-22T07:29:56;95179.03;;;10.56;68.42
5500;BME280;2772;42.700;23.304;2023-02-22T07:32:23;95177.81;;;10.62;67.78
5500;BME280;2772;42.700;23.304;2023-02-22T07:34:51;95176.25;;;10.61;67.95
5500;BME280;2772;42.700;23.304;2023-02-22T07:37:17;95179.38;;;10.63;68.03
5500;BME280;2772;42.700;23.304;2023-02-22T07:39:45;95164.00;;;10.60;68.40
5500;BME280;2772;42.700;23.304;2023-02-22T07:42:12;95163.25;;;10.60;68.68
5500;BME280;2772;42.700;23.304;2023-02-22T07:44:38;95161.72;;;10.67;68.38
5500;BME280;2772;42.700;23.304;2023-02-22T07:47:05;95172.88;;;10.78;67.88
5500;BME280;2772;42.700;23.304;2023-02-22T07:49:33;95164.47;;;10.84;67.62
5500;BME280;2772;42.700;23.304;2023-02-22T07:52:01;95166.69;;;10.91;66.94
5500;BME280;2772;42.700;23.304;2023-02-22T07:54:28;95167.75;;;10.90;66.66
5500;BME280;2772;42.700;23.304;2023-02-22T07:56:54;95165.16;;;10.98;66.33
5500;BME280;2772;42.700;23.304;2023-02-22T07:59:21;95167.53;;;11.08;66.00
5500;BME280;2772;42.700;23.304;2023-02-22T08:01:48;95154.88;;;11.14;65.84
5500;BME280;2772;42.700;23.304;2023-02-22T08:04:15;95161.31;;;11.13;65.38
5500;BME280;2772;42.700;23.304;2023-02-22T08:06:42;95154.56;;;11.63;100.00
5500;BME280;2772;42.700;23.304;2023-02-22T08:09:11;95156.16;;;11.73;90.29
5500;BME280;2772;42.700;23.304;2023-02-22T08:11:38;95151.78;;;12.02;89.96
5500;BME280;2772;42.700;23.304;2023-02-22T08:14:06;95157.63;;;12.30;89.94
5500;BME280;2772;42.700;23.304;2023-02-22T08:16:32;95148.66;;;12.34;79.63
5500;BME280;2772;42.700;23.304;2023-02-22T08:18:59;95145.31;;;12.46;78.21
5500;BME280;2772;42.700;23.304;2023-02-22T08:21:26;95148.94;;;12.41;69.76
5500;BME280;2772;42.700;23.304;2023-02-22T08:23:52;95148.31;;;12.44;65.08
5500;BME280;2772;42.700;23.304;2023-02-22T08:26:21;95151.63;;;12.33;63.99
5500;BME280;2772;42.700;23.304;2023-02-22T08:28:51;95139.69;;;12.39;64.92
5500;BME280;2772;42.700;23.304;2023-02-22T08:31:18;95141.38;;;12.60;65.46
5500;BME280;2772;42.700;23.304;2023-02-22T08:33:46;95138.78;;;12.90;69.36
5500;BME280;2772;42.700;23.304;2023-02-22T08:36:14;95138.28;;;12.96;66.00
5500;BME280;2772;42.700;23.304;2023-02-22T08:38:41;95141.44;;;12.98;61.95
5500;BME280;2772;42.700;23.304;2023-02-22T08:41:08;95141.78;;;12.88;60.40
5500;BME280;2772;42.700;23.304;2023-02-22T08:43:36;95134.22;;;12.90;60.29
5500;BME280;2772;42.700;23.304;2023-02-22T08:46:03;95133.91;;;13.00;59.99
5500;BME280;2772;42.700;23.304;2023-02-22T08:48:30;95132.63;;;13.06;59.28
5500;BME280;2772;42.700;23.304;2023-02-22T08:50:56;95131.81;;;13.14;59.66
5500;BME280;2772;42.700;23.304;2023-02-22T08:53:23;95131.75;;;13.23;59.38
5500;BME280;2772;42.700;23.304;2023-02-22T08:55:51;95131.13;;;13.26;59.62
5500;BME280;2772;42.700;23.304;2023-02-22T08:58:18;95130.16;;;13.30;59.69
5500;BME280;2772;42.700;23.304;2023-02-22T09:00:46;95121.19;;;13.35;60.07
5500;BME280;2772;42.700;23.304;2023-02-22T09:03:14;95134.81;;;13.42;60.19
5500;BME280;2772;42.700;23.304;2023-02-22T09:05:41;95119.28;;;13.35;60.25
5500;BME280;2772;42.700;23.304;2023-02-22T09:08:08;95123.47;;;13.45;60.67
5500;BME280;2772;42.700;23.304;2023-02-22T09:10:35;95131.47;;;13.53;60.25
5500;BME280;2772;42.700;23.304;2023-02-22T09:13:02;95124.81;;;13.59;60.00
5500;BME280;2772;42.700;23.304;2023-02-22T09:15:29;95118.00;;;13.62;60.69
5500;BME280;2772;42.700;23.304;2023-02-22T09:17:58;95111.38;;;13.68;60.34
5500;BME280;2772;42.700;23.304;2023-02-22T09:20:26;95105.50;;;13.74;60.31
5500;BME280;2772;42.700;23.304;2023-02-22T09:22:53;95111.13;;;13.81;60.11
5500;BME280;2772;42.700;23.304;2023-02-22T09:25:20;95111.97;;;13.94;59.88
5500;BME280;2772;42.700;23.304;2023-02-22T09:27:48;95107.84;;;13.96;59.45
5500;BME280;2772;42.700;23.304;2023-02-22T09:30:17;95107.00;;;14.04;59.24
5500;BME280;2772;42.700;23.304;2023-02-22T09:32:48;95105.69;;;14.10;58.54
5500;BME280;2772;42.700;23.304;2023-02-22T09:35:16;95103.16;;;14.14;58.67
5500;BME280;2772;42.700;23.304;2023-02-22T09:37:43;95103.56;;;14.24;58.45
5500;BME280;2772;42.700;23.304;2023-02-22T09:40:14;95102.69;;;14.32;58.05
5500;BME280;2772;42.700;23.304;2023-02-22T09:42:47;95096.03;;;14.39;58.58
5500;BME280;2772;42.700;23.304;2023-02-22T09:45:21;95092.94;;;14.49;58.19
5500;BME280;2772;42.700;23.304;2023-02-22T09:47:51;95091.16;;;14.53;58.23
5500;BME280;2772;42.700;23.304;2023-02-22T09:50:22;95094.97;;;14.64;57.48
5500;BME280;2772;42.700;23.304;2023-02-22T09:52:54;95088.16;;;14.66;57.43
5500;BME280;2772;42.700;23.304;2023-02-22T09:55:30;95092.53;;;14.71;57.24
5500;BME280;2772;42.700;23.304;2023-02-22T09:58:02;95089.44;;;14.81;56.98
5500;BME280;2772;42.700;23.304;2023-02-22T10:00:31;95083.41;;;14.84;56.78
5500;BME280;2772;42.700;23.304;2023-02-22T10:03:10;95085.88;;;14.89;56.78
5500;BME280;2772;42.700;23.304;2023-02-22T10:05:48;95084.31;;;14.88;56.61
5500;BME280;2772;42.700;23.304;2023-02-22T10:08:18;95078.97;;;15.00;56.66
5500;BME280;2772;42.700;23.304;2023-02-22T10:10:47;95071.78;;;15.04;55.20
5500;BME280;2772;42.700;23.304;2023-02-22T10:13:28;95071.38;;;15.14;54.54
5500;BME280;2772;42.700;23.304;2023-02-22T10:16:01;95066.88;;;15.18;53.87
5500;BME280;2772;42.700;23.304;2023-02-22T10:19:06;95056.38;;;15.25;54.16
5500;BME280;2772;42.700;23.304;2023-02-22T10:21:48;95060.84;;;15.33;53.64
5500;BME280;2772;42.700;23.304;2023-02-22T10:24:29;95045.97;;;15.35;53.76
5500;BME280;2772;42.700;23.304;2023-02-22T10:26:58;95044.97;;;15.40;53.40
5500;BME280;2772;42.700;23.304;2023-02-22T10:29:31;95043.88;;;15.41;53.53
5500;BME280;2772;42.700;23.304;2023-02-22T10:32:03;95035.38;;;15.39;53.25
5500;BME280;2772;42.700;23.304;2023-02-22T10:34:37;95023.06;;;15.38;52.61
5500;BME280;2772;42.700;23.304;2023-02-22T10:37:18;95025.19;;;15.44;53.13
5500;BME280;2772;42.700;23.304;2023-02-22T10:39:49;95011.06;;;15.47;53.28
5500;BME280;2772;42.700;23.304;2023-02-22T10:42:21;95010.50;;;15.54;53.22
5500;BME280;2772;42.700;23.304;2023-02-22T10:44:52;95011.41;;;15.58;52.76
5500;BME280;2772;42.700;23.304;2023-02-22T10:47:19;94998.88;;;15.62;52.75
5500;BME280;2772;42.700;23.304;2023-02-22T10:49:48;95008.25;;;15.68;52.07
5500;BME280;2772;42.700;23.304;2023-02-22T10:52:22;94992.69;;;15.73;52.17
5500;BME280;2772;42.700;23.304;2023-02-22T10:54:51;94995.22;;;15.82;52.20
5500;BME280;2772;42.700;23.304;2023-02-22T10:57:21;94990.28;;;15.84;51.95
5500;BME280;2772;42.700;23.304;2023-02-22T10:59:49;94985.03;;;15.88;51.80
5500;BME280;2772;42.700;23.304;2023-02-22T11:02:18;94984.06;;;15.96;52.11
5500;BME280;2772;42.700;23.304;2023-02-22T11:04:48;94990.16;;;16.08;51.72
5500;BME280;2772;42.700;23.304;2023-02-22T11:07:22;94983.09;;;16.16;51.64
5500;BME280;2772;42.700;23.304;2023-02-22T11:09:52;94978.06;;;16.14;51.00
5500;BME280;2772;42.700;23.304;2023-02-22T11:12:26;94979.88;;;16.10;51.33
5500;BME280;2772;42.700;23.304;2023-02-22T11:14:53;94979.63;;;16.15;51.07
5500;BME280;2772;42.700;23.304;2023-02-22T11:17:27;94964.97;;;16.13;50.02
5500;BME280;2772;42.700;23.304;2023-02-22T11:19:56;94964.81;;;16.21;50.00
5500;BME280;2772;42.700;23.304;2023-02-22T11:22:26;94962.31;;;16.28;49.67
5500;BME280;2772;42.700;23.304;2023-02-22T11:24:57;94959.78;;;16.35;49.04
5500;BME280;2772;42.700;23.304;2023-02-22T11:27:31;94952.69;;;16.43;48.76
5500;BME280;2772;42.700;23.304;2023-02-22T11:30:20;94963.66;;;16.50;48.38
5500;BME280;2772;42.700;23.304;2023-02-22T11:32:55;94950.97;;;16.50;47.78
5500;BME280;2772;42.700;23.304;2023-02-22T11:35:33;94949.88;;;16.51;47.21
5500;BME280;2772;42.700;23.304;2023-02-22T11:38:13;94946.94;;;16.56;47.34
5500;BME280;2772;42.700;23.304;2023-02-22T11:40:41;94941.69;;;16.63;46.69
5500;BME280;2772;42.700;23.304;2023-02-22T11:43:12;94934.06;;;16.65;46.42
5500;BME280;2772;42.700;23.304;2023-02-22T11:45:55;94937.22;;;16.67;46.05
5500;BME280;2772;42.700;23.304;2023-02-22T11:48:26;94935.81;;;16.73;45.69
5500;BME280;2772;42.700;23.304;2023-02-22T11:51:02;94926.69;;;16.78;45.73
5500;BME280;2772;42.700;23.304;2023-02-22T11:53:43;94923.75;;;16.83;45.45
5500;BME280;2772;42.700;23.304;2023-02-22T11:56:15;94916.97;;;16.89;44.94
5500;BME280;2772;42.700;23.304;2023-02-22T11:58:47;94916.59;;;16.90;44.96
5500;BME280;2772;42.700;23.304;2023-02-22T12:01:22;94932.75;;;16.90;45.13
5500;BME280;2772;42.700;23.304;2023-02-22T12:04:18;94916.00;;;16.97;44.53
5500;BME280;2772;42.700;23.304;2023-02-22T12:06:53;94916.34;;;16.95;43.80
5500;BME280;2772;42.700;23.304;2023-02-22T12:09:32;94916.03;;;17.00;43.78
5500;BME280;2772;42.700;23.304;2023-02-22T12:12:09;94906.91;;;17.05;43.87
5500;BME280;2772;42.700;23.304;2023-02-22T12:14:47;94899.97;;;17.04;43.33
5500;BME280;2772;42.700;23.304;2023-02-22T12:17:34;94898.50;;;17.06;43.16
5500;BME280;2772;42.700;23.304;2023-02-22T12:20:11;94895.41;;;17.04;42.82
5500;BME280;2772;42.700;23.304;2023-02-22T12:22:46;94895.41;;;17.04;43.08
5500;BME280;2772;42.700;23.304;2023-02-22T12:25:24;94899.38;;;17.10;42.51
5500;BME280;2772;42.700;23.304;2023-02-22T12:27:56;94896.25;;;17.08;43.26
5500;BME280;2772;42.700;23.304;2023-02-22T12:30:26;94893.34;;;17.17;43.13
5500;BME280;2772;42.700;23.304;2023-02-22T12:32:57;94881.53;;;17.21;42.86
5500;BME280;2772;42.700;23.304;2023-02-22T12:35:26;94885.94;;;17.29;43.03
5500;BME280;2772;42.700;23.304;2023-02-22T12:38:03;94891.44;;;17.36;42.54
5500;BME280;2772;42.700;23.304;2023-02-22T12:40:40;94871.13;;;17.39;42.20
5500;BME280;2772;42.700;23.304;2023-02-22T12:43:13;94880.31;;;17.38;41.93
5500;BME280;2772;42.700;23.304;2023-02-22T12:45:49;94880.75;;;17.40;41.85
5500;BME280;2772;42.700;23.304;2023-02-22T12:48:32;94872.31;;;17.41;41.48
5500;BME280;2772;42.700;23.304;2023-02-22T12:51:06;94866.34;;;17.48;41.63
5500;BME280;2772;42.700;23.304;2023-02-22T12:53:39;94875.59;;;17.51;41.61
5500;BME280;2772;42.700;23.304;2023-02-22T12:56:18;94876.47;;;17.55;41.81
5500;BME280;2772;42.700;23.304;2023-02-22T12:58:53;94881.06;;;17.54;41.48
5500;BME280;2772;42.700;23.304;2023-02-22T13:01:26;94870.22;;;17.51;42.01
5500;BME280;2772;42.700;23.304;2023-02-22T13:03:54;94864.56;;;17.56;41.53
5500;BME280;2772;42.700;23.304;2023-02-22T13:06:33;94860.34;;;17.58;41.49
5500;BME280;2772;42.700;23.304;2023-02-22T13:09:19;94872.19;;;17.54;40.50
5500;BME280;2772;42.700;23.304;2023-02-22T13:11:58;94859.53;;;17.54;40.61
5500;BME280;2772;42.700;23.304;2023-02-22T13:14:41;94853.06;;;17.59;41.06
5500;BME280;2772;42.700;23.304;2023-02-22T13:17:15;94859.66;;;17.61;40.99
5500;BME280;2772;42.700;23.304;2023-02-22T13:19:52;94859.28;;;17.63;41.27
5500;BME280;2772;42.700;23.304;2023-02-22T13:22:26;94854.41;;;17.68;41.26
5500;BME280;2772;42.700;23.304;2023-02-22T13:25:03;94867.09;;;17.68;41.10
5500;BME280;2772;42.700;23.304;2023-02-22T13:27:37;94861.28;;;17.66;40.82
5500;BME280;2772;42.700;23.304;2023-02-22T13:30:15;94849.81;;;17.69;40.85
5500;BME280;2772;42.700;23.304;2023-02-22T13:33:06;94853.22;;;17.66;40.94
5500;BME280;2772;42.700;23.304;2023-02-22T13:35:56;94852.50;;;17.69;41.26